Ratari, Serbia
Current Conditions -  °F | °C
As of 2:30 PM on Tuesday 27 Jan 2015 (Local Time) from LYKV Reporting Station
Haze Haze  
Wind Chill: 37°   Ceiling: 2700
Heat Index: 37°   Visibility: 3mi
Dew Point: 34°   Wind: 1mph
Humidity: 87%   Direction: NA
Pressure: 29.94"   Gusts: NA
Location:  44.36°N, 20.84°E
Report Text: LYKV 271230Z VRB01KT 5000 BR SCT008 BKN027 03/01 Q1014 NOSIG
Loading
Personal Weather Stations






























Interactive Weather Map New forecast layout! Learn more

10-Day Weather Forecast

Advertisements
Track Severe Weather on mobile